createdAt,value
2019-02-22T00:11:43.899Z,94082.98
2019-02-22T00:27:16.950Z,94060.88
2019-02-22T00:42:50.466Z,94029.28
2019-02-22T00:58:23.954Z,94010.94
2019-02-22T01:13:56.864Z,94006.64
2019-02-22T01:29:30.120Z,93982.23
2019-02-22T01:45:03.679Z,93952.57
2019-02-22T02:00:36.856Z,93940.79
2019-02-22T02:16:09.940Z,93909.28
2019-02-22T02:31:43.234Z,93892.78
2019-02-22T02:47:17.202Z,93878.01
2019-02-22T03:02:50.273Z,93871.61
2019-02-22T03:18:22.992Z,93849.77
2019-02-22T03:33:55.841Z,93830.47
2019-02-22T03:49:29.248Z,93812.92
2019-02-22T04:05:02.110Z,93801.86
2019-02-22T04:20:34.772Z,93774.03
2019-02-22T04:36:07.763Z,93752.88
2019-02-22T04:51:40.888Z,93748.19
2019-02-22T05:07:13.978Z,93737.95
2019-02-22T05:22:47.546Z,93750.64
2019-02-22T05:38:20.920Z,93740.41
2019-02-22T05:53:54.161Z,93745.91
2019-02-22T06:09:27.224Z,93736.37
2019-02-22T06:25:01.061Z,93728.12
2019-02-22T06:40:34.863Z,93723.16
2019-02-22T06:56:07.780Z,93707.18
2019-02-22T07:11:43.360Z,93673.03
2019-02-22T07:27:16.370Z,93667.52
2019-02-22T07:42:49.480Z,93660.46
2019-02-22T07:58:23.114Z,93657.39
2019-02-22T08:13:56.177Z,93636.73
2019-02-22T08:29:29.277Z,93610.09
2019-02-22T08:45:02.199Z,93582.12
2019-02-22T09:00:35.077Z,93576.78
2019-02-22T09:15:37.735Z,93547.14
2019-02-22T09:30:40.342Z,93547.61
2019-02-22T09:45:43.406Z,93549.12
2019-02-22T10:00:45.985Z,93545.02
2019-02-22T10:15:50.068Z,93531.25
2019-02-22T10:30:54.054Z,93498.50
2019-02-22T10:45:56.643Z,93472.04
2019-02-22T11:01:00.807Z,93446.10
2019-02-22T11:16:03.528Z,93444.67
2019-02-22T11:31:06.130Z,93438.33
2019-02-22T11:46:10.951Z,93408.62
2019-02-22T12:01:14.083Z,93390.80
2019-02-22T12:16:16.705Z,93373.41
2019-02-22T12:31:19.380Z,93363.46
2019-02-22T12:46:22.835Z,93350.39
2019-02-22T13:01:26.046Z,93359.52
2019-02-22T13:16:28.813Z,93344.22
2019-02-22T13:31:33.315Z,93336.86
2019-02-22T13:46:36.027Z,93327.17
2019-02-22T14:01:38.998Z,93319.19
2019-02-22T14:16:43.739Z,93321.58
2019-02-22T14:31:46.305Z,93315.28
2019-02-22T14:46:48.853Z,93320.13
2019-02-22T15:01:53.370Z,93310.33
2019-02-22T15:16:58.009Z,93326.00
2019-02-22T15:32:01.420Z,93324.05
2019-02-22T15:47:11.389Z,93337.58
2019-02-22T16:02:10.157Z,93336.98
2019-02-22T16:17:12.849Z,93352.19
2019-02-22T16:32:15.439Z,93365.31
2019-02-22T16:47:18.063Z,93369.13
2019-02-22T17:02:20.814Z,93377.59
2019-02-22T17:17:23.611Z,93394.52
2019-02-22T17:32:26.264Z,93395.58
2019-02-22T17:47:30.855Z,93390.84
2019-02-22T18:02:33.456Z,93386.27
2019-02-22T18:17:38.031Z,93375.09
2019-02-22T18:32:41.459Z,93367.17
2019-02-22T18:47:44.298Z,93356.72
2019-02-22T19:02:47.488Z,93349.66
2019-02-22T19:17:50.884Z,93346.91
2019-02-22T19:32:54.263Z,93349.37
2019-02-22T19:47:57.464Z,93335.41
2019-02-22T20:03:00.044Z,93315.65
2019-02-22T20:18:04.962Z,93294.27
2019-02-22T20:33:08.862Z,93291.44
2019-02-22T20:48:11.435Z,93289.48
2019-02-22T21:03:16.200Z,93285.07
2019-02-22T21:18:22.451Z,93277.87
2019-02-22T21:33:25.861Z,93279.53
2019-02-22T21:48:28.445Z,93278.29
2019-02-22T22:03:31.428Z,93277.50
2019-02-22T22:18:38.790Z,93278.70
2019-02-22T22:33:39.971Z,93294.98
2019-02-22T22:48:50.082Z,93337.55
2019-02-22T23:03:47.263Z,93452.08
2019-02-22T23:19:01.408Z,93549.09
2019-02-22T23:33:55.974Z,93537.95
2019-02-22T23:48:58.534Z,93619.75
